createdAt,value
2022-08-29T00:01:15.389Z,100806.34
2022-08-29T00:06:15.447Z,100776.94
2022-08-29T00:11:14.839Z,100785.53
2022-08-29T00:16:14.305Z,100797.56
2022-08-29T00:21:13.453Z,100783.94
2022-08-29T00:26:13.897Z,100770.00
2022-08-29T00:31:11.833Z,100787.38
2022-08-29T00:36:20.525Z,100774.28
2022-08-29T00:41:20.442Z,100807.72
2022-08-29T00:46:21.758Z,100816.75
2022-08-29T00:51:22.912Z,100773.38
2022-08-29T00:56:24.868Z,100806.53
2022-08-29T01:01:23.428Z,100816.91
2022-08-29T01:06:25.206Z,100796.03
2022-08-29T01:11:49.026Z,100780.16
2022-08-29T01:16:46.796Z,100818.72
2022-08-29T01:21:59.968Z,100777.69
2022-08-29T01:26:58.160Z,100795.03
2022-08-29T01:31:59.565Z,100796.06
2022-08-29T01:37:07.644Z,100785.03
2022-08-29T01:42:11.820Z,100783.44
2022-08-29T01:47:12.146Z,100796.78
2022-08-29T01:52:13.373Z,100800.00
2022-08-29T01:57:14.255Z,100836.94
2022-08-29T02:02:23.978Z,100826.38
2022-08-29T02:07:26.315Z,100801.88
2022-08-29T02:12:26.373Z,100802.16
2022-08-29T02:17:26.610Z,100819.44
2022-08-29T02:22:27.093Z,100841.84
2022-08-29T02:27:25.370Z,100842.66
2022-08-29T02:32:23.436Z,100805.88
2022-08-29T02:37:23.085Z,100823.84
2022-08-29T02:42:22.117Z,100810.53
2022-08-29T02:47:25.374Z,100804.38
2022-08-29T02:52:23.536Z,100827.38
2022-08-29T02:57:21.014Z,100853.44
2022-08-29T03:02:20.179Z,100824.53
2022-08-29T03:07:22.776Z,100834.44
2022-08-29T03:12:21.113Z,100845.84
2022-08-29T03:17:19.067Z,100857.75
2022-08-29T03:22:21.008Z,100855.66
2022-08-29T03:27:23.153Z,100847.91
2022-08-29T03:32:22.076Z,100863.63
2022-08-29T03:37:22.612Z,100857.47
2022-08-29T03:42:23.667Z,100877.84
2022-08-29T03:47:21.767Z,100858.75
2022-08-29T03:52:20.022Z,100872.94
2022-08-29T03:57:18.244Z,100888.81
2022-08-29T04:02:18.548Z,100902.97
2022-08-29T04:07:17.829Z,100931.28
2022-08-29T04:12:17.845Z,100879.91
2022-08-29T04:17:19.131Z,100883.22
2022-08-29T04:22:19.758Z,100901.97
2022-08-29T04:27:19.421Z,100888.22
2022-08-29T04:32:18.196Z,100892.50
2022-08-29T04:37:20.158Z,100924.28
2022-08-29T04:42:20.436Z,100922.53
2022-08-29T04:47:21.804Z,100939.91
2022-08-29T04:52:20.860Z,100902.31
2022-08-29T04:57:23.273Z,100920.63
2022-08-29T05:02:23.554Z,100906.63
2022-08-29T05:07:23.734Z,100899.78
2022-08-29T05:12:21.907Z,100920.88
2022-08-29T05:17:19.970Z,100902.00
2022-08-29T05:22:21.048Z,100931.75
2022-08-29T05:27:23.002Z,100932.16
2022-08-29T05:32:21.553Z,100911.41
2022-08-29T05:37:20.974Z,100945.19
2022-08-29T05:42:22.292Z,100912.44
2022-08-29T05:47:21.171Z,100933.38
2022-08-29T05:52:20.589Z,100928.00
2022-08-29T05:57:21.900Z,100930.44
2022-08-29T06:02:21.417Z,100965.03
2022-08-29T06:07:21.641Z,100928.91
2022-08-29T06:12:25.547Z,100929.59
2022-08-29T06:17:23.002Z,100936.31
2022-08-29T06:22:22.498Z,100964.03
2022-08-29T06:27:21.201Z,100927.41
2022-08-29T06:32:22.281Z,100951.81
2022-08-29T06:37:20.871Z,100943.28
2022-08-29T06:42:28.629Z,100958.28
2022-08-29T06:47:27.333Z,100949.97
2022-08-29T06:52:27.882Z,100970.09
2022-08-29T06:57:27.032Z,100980.28
2022-08-29T07:02:25.381Z,100959.13
2022-08-29T07:07:23.698Z,100983.72
2022-08-29T07:12:24.674Z,100956.69
2022-08-29T07:17:26.278Z,100953.19
2022-08-29T07:22:23.815Z,100970.22
2022-08-29T07:27:32.052Z,100976.63
2022-08-29T07:32:31.516Z,100968.94
2022-08-29T07:37:32.731Z,100988.69
2022-08-29T07:42:31.481Z,100961.00
2022-08-29T07:47:29.696Z,100978.25
2022-08-29T07:52:28.121Z,100964.72
2022-08-29T07:57:25.825Z,100966.81
2022-08-29T08:02:23.915Z,100970.25
2022-08-29T08:07:29.527Z,100952.97
2022-08-29T08:12:28.328Z,100941.19
2022-08-29T08:17:26.536Z,100942.59
2022-08-29T08:22:29.799Z,100982.41
2022-08-29T08:27:28.831Z,100953.75
2022-08-29T08:32:32.418Z,100978.84
2022-08-29T08:42:58.676Z,100978.03
2022-08-29T08:48:07.505Z,100964.13
2022-08-29T08:53:36.519Z,100970.28
2022-08-29T08:58:54.061Z,100955.22
2022-08-29T09:04:04.829Z,100978.22
2022-08-29T09:09:24.482Z,100960.88
2022-08-29T09:15:07.970Z,100976.44
2022-08-29T09:20:23.911Z,100944.53
2022-08-29T09:25:28.015Z,100950.88
2022-08-29T09:30:34.730Z,100950.34
2022-08-29T09:35:37.615Z,100970.91
2022-08-29T09:40:47.419Z,100967.59
2022-08-29T09:46:07.840Z,100967.81
2022-08-29T09:51:18.890Z,100936.28
2022-08-29T09:56:27.216Z,100955.22
2022-08-29T10:01:27.606Z,100948.53
2022-08-29T10:06:29.480Z,100952.94
2022-08-29T10:12:27.276Z,100950.59
2022-08-29T10:17:56.980Z,100936.69
2022-08-29T10:23:08.613Z,100917.84
2022-08-29T10:28:22.389Z,100952.81
2022-08-29T10:33:33.585Z,100950.97
2022-08-29T10:38:52.598Z,100932.81
2022-08-29T10:44:06.987Z,100939.38
2022-08-29T10:49:46.270Z,100913.00
2022-08-29T10:54:54.927Z,100938.28
2022-08-29T11:00:10.850Z,100912.34
2022-08-29T11:05:13.805Z,100916.56
2022-08-29T11:10:17.901Z,100899.44
2022-08-29T11:15:28.010Z,100911.19
2022-08-29T11:20:36.993Z,100881.63
2022-08-29T11:25:40.984Z,100879.72
2022-08-29T11:30:56.169Z,100860.84
2022-08-29T11:36:44.282Z,100873.44
2022-08-29T11:41:53.166Z,100866.94
2022-08-29T11:47:01.081Z,100854.19
2022-08-29T11:52:26.397Z,100854.16
2022-08-29T11:57:31.902Z,100873.72
2022-08-29T12:02:43.619Z,100867.94
2022-08-29T12:08:26.186Z,100843.41
2022-08-29T12:13:50.289Z,100863.84
2022-08-29T12:18:57.918Z,100834.09
2022-08-29T12:23:55.631Z,100833.75
2022-08-29T12:29:06.685Z,100819.38
2022-08-29T12:34:23.645Z,100835.44
2022-08-29T12:39:32.308Z,100846.25
2022-08-29T12:44:40.127Z,100822.25
2022-08-29T12:49:43.453Z,100837.00
2022-08-29T12:54:45.978Z,100810.81
2022-08-29T12:59:45.621Z,100824.63
2022-08-29T13:04:44.768Z,100806.19
2022-08-29T13:09:57.672Z,100791.34
2022-08-29T13:15:09.910Z,100810.25
2022-08-29T13:21:11.263Z,100791.34
2022-08-29T13:26:14.472Z,100811.41
2022-08-29T13:31:14.533Z,100811.59
2022-08-29T13:36:29.419Z,100806.41
2022-08-29T13:41:29.366Z,100764.56
2022-08-29T13:46:31.685Z,100771.34
2022-08-29T13:51:32.550Z,100772.75
2022-08-29T13:56:33.637Z,100774.47
2022-08-29T14:07:26.165Z,100762.44
2022-08-29T14:12:32.861Z,100739.25
2022-08-29T14:17:37.507Z,100753.63
2022-08-29T14:22:39.116Z,100742.44
2022-08-29T14:27:38.595Z,100746.44
2022-08-29T14:32:40.169Z,100748.59
2022-08-29T14:44:03.009Z,100718.22
2022-08-29T14:49:40.190Z,100742.78
2022-08-29T14:54:45.639Z,100724.69
2022-08-29T15:00:28.738Z,100706.28
2022-08-29T15:05:39.843Z,100702.81
2022-08-29T15:10:54.888Z,100730.72
2022-08-29T15:16:03.031Z,100722.25
2022-08-29T15:21:32.404Z,100724.31
2022-08-29T15:26:56.134Z,100714.38
2022-08-29T15:31:58.369Z,100713.63
2022-08-29T15:37:09.485Z,100709.47
2022-08-29T15:42:27.702Z,100690.50
2022-08-29T15:48:11.649Z,100699.28
2022-08-29T15:53:29.286Z,100695.00
2022-08-29T15:58:35.943Z,100699.84
2022-08-29T16:03:54.373Z,100735.81
2022-08-29T16:09:14.933Z,100702.06
2022-08-29T16:14:57.428Z,100721.66
2022-08-29T16:19:37.416Z,100745.00
2022-08-29T16:24:40.012Z,100724.41
2022-08-29T16:29:38.189Z,100740.59
2022-08-29T16:34:36.361Z,100726.28
2022-08-29T16:39:35.072Z,100731.63
2022-08-29T16:44:34.026Z,100727.28
2022-08-29T16:49:34.813Z,100739.59
2022-08-29T16:54:33.134Z,100730.16
2022-08-29T16:59:31.773Z,100710.84
2022-08-29T17:04:30.809Z,100732.91
2022-08-29T17:09:30.150Z,100730.16
2022-08-29T17:14:32.320Z,100742.50
2022-08-29T17:19:33.148Z,100736.81
2022-08-29T17:24:35.546Z,100768.75
2022-08-29T17:29:35.178Z,100741.28
2022-08-29T17:34:34.188Z,100762.50
2022-08-29T17:39:36.928Z,100776.63
2022-08-29T17:44:38.028Z,100754.66
2022-08-29T17:49:37.781Z,100776.59
2022-08-29T17:54:36.387Z,100780.63
2022-08-29T17:59:39.589Z,100799.84
2022-08-29T18:04:39.368Z,100803.22
2022-08-29T18:09:40.532Z,100820.78
2022-08-29T18:14:42.510Z,100799.03
2022-08-29T18:19:48.014Z,100801.03
2022-08-29T18:24:48.306Z,100806.34
2022-08-29T18:29:46.666Z,100802.84
2022-08-29T18:34:44.702Z,100801.06
2022-08-29T18:39:43.604Z,100810.16
2022-08-29T18:44:41.970Z,100818.69
2022-08-29T18:49:58.746Z,100818.88
2022-08-29T18:54:57.189Z,100803.09
2022-08-29T19:00:06.079Z,100826.31
2022-08-29T19:05:33.072Z,100795.84
2022-08-29T19:10:32.941Z,100793.97
2022-08-29T19:15:41.231Z,100791.84
2022-08-29T19:21:02.460Z,100797.09
2022-08-29T19:26:08.056Z,100826.41
2022-08-29T19:31:18.141Z,100807.03
2022-08-29T19:36:21.282Z,100834.31
2022-08-29T19:41:20.071Z,100856.72
2022-08-29T19:46:25.340Z,100830.59
2022-08-29T19:51:25.392Z,100836.59
2022-08-29T19:56:23.985Z,100842.84
2022-08-29T20:01:27.598Z,100860.75
2022-08-29T20:06:28.651Z,100860.84
2022-08-29T20:11:29.468Z,100858.56
2022-08-29T20:16:34.368Z,100849.53
2022-08-29T20:21:34.583Z,100882.09
2022-08-29T20:26:37.274Z,100876.03
2022-08-29T20:31:36.016Z,100868.25
2022-08-29T20:37:00.027Z,100853.97
2022-08-29T20:42:02.752Z,100868.25
2022-08-29T20:47:04.996Z,100856.56
2022-08-29T20:52:03.841Z,100852.34
2022-08-29T20:57:01.634Z,100860.41
2022-08-29T21:02:00.267Z,100852.81
2022-08-29T21:07:03.368Z,100838.19
2022-08-29T21:12:01.967Z,100852.38
2022-08-29T21:17:01.150Z,100837.34
2022-08-29T21:22:00.374Z,100854.72
2022-08-29T21:26:59.387Z,100848.09
2022-08-29T21:31:57.804Z,100841.94
2022-08-29T21:36:55.966Z,100837.88
2022-08-29T21:41:53.928Z,100853.31
2022-08-29T21:46:52.838Z,100867.28
2022-08-29T21:51:50.867Z,100856.81
2022-08-29T21:56:50.063Z,100844.56
2022-08-29T22:01:54.787Z,100860.25
2022-08-29T22:12:11.765Z,100841.09
2022-08-29T22:17:10.104Z,100848.53
2022-08-29T22:22:09.938Z,100868.94
2022-08-29T22:27:08.959Z,100878.84
2022-08-29T22:32:07.111Z,100827.78
2022-08-29T22:37:08.750Z,100866.81
2022-08-29T22:42:07.009Z,100855.34
2022-08-29T22:47:06.128Z,100851.31
2022-08-29T22:52:04.917Z,100887.69
2022-08-29T22:57:04.470Z,100867.59
2022-08-29T23:02:02.950Z,100880.72
2022-08-29T23:07:02.043Z,100853.41
2022-08-29T23:12:00.649Z,100858.19
2022-08-29T23:17:00.493Z,100863.03
2022-08-29T23:21:59.226Z,100888.47
2022-08-29T23:27:00.348Z,100851.53
2022-08-29T23:31:58.543Z,100844.84
2022-08-29T23:36:57.483Z,100844.31
2022-08-29T23:41:55.912Z,100861.38
2022-08-29T23:46:57.412Z,100839.13
2022-08-29T23:51:56.142Z,100856.34
2022-08-29T23:56:56.016Z,100848.72
